首页
METAR-TAF:

METAR-TAF

机场 :

基韋斯特, 佛罗里达州, 美国

纬度: 24-34-46N, 经度: 081-41-02W, 海拔: 1米

当前天气观测

该预报发布于26分钟前的15:53 UTC
风速12节,风向东北,有时为18节阵风
温度 29°C
湿度 70%
气压 1015 hPa
能見度: 16.1公里
多云层高于4500英尺
多云层高于25000英尺

METAR: KNQX 231553Z 05012G18KT 10SM BKN045 BKN250 29/23 A2997 RMK AO2 SLP147 T02890228 $

时间: 12:19 (16:19 UTC)

预报

预报有效从23日的 15点(UTC)到 24日的 15点(UTC)
风速14节,风向东转东北
能见度10公里或以上
散云层高于5000英尺
散云层高于25000英尺
附近有阵雨
成为
从 23日的 20点(UTC)到 23日的 22点(UTC)
风速14节,风向东转东北
能见度10公里或以上
少量云层高于3000英尺
散云层高于25000英尺

TAF: KNQX 2315/2415 06014KT 9999 VCSH SCT050 SCT250 QNH2987INS BECMG 2320/2322 06014KT 9999 NSW FEW030 SCT250 QNH2988INS T31/2319Z T27/2411Z COR1540 FN20027

超过4000个机场的气象观测和天气预报(METAR&TAF报告)。

可查询的气象台以黄色和红色小点在地图上表示。

将鼠标移到小点上方,可查看气象台名称。

然后点击查看天气观测和预报。

如需切换地图:点击带黑十字的绿色按钮放大地图;点击带横线的绿色按钮缩小地图;或者点击绿色箭头查看邻近地区的地图。


METAR-TAF: